sensor_id;sensor_type;location;lat;lon;timestamp;temperature;humidity
76537;DHT22;65381;51.254;15.592;2023-05-17T00:01:09;9.50;78.80
76537;DHT22;65381;51.254;15.592;2023-05-17T00:03:37;9.40;79.00
76537;DHT22;65381;51.254;15.592;2023-05-17T00:06:06;9.40;79.00
76537;DHT22;65381;51.254;15.592;2023-05-17T00:08:34;9.40;79.00
76537;DHT22;65381;51.254;15.592;2023-05-17T00:11:02;9.40;79.00
76537;DHT22;65381;51.254;15.592;2023-05-17T00:13:30;9.40;79.00
76537;DHT22;65381;51.254;15.592;2023-05-17T00:15:58;9.40;78.90
76537;DHT22;65381;51.254;15.592;2023-05-17T00:18:26;9.40;78.90
76537;DHT22;65381;51.254;15.592;2023-05-17T00:20:54;9.40;78.80
76537;DHT22;65381;51.254;15.592;2023-05-17T00:23:23;9.40;78.80
76537;DHT22;65381;51.254;15.592;2023-05-17T00:25:51;9.40;78.80
76537;DHT22;65381;51.254;15.592;2023-05-17T00:28:19;9.40;78.70
76537;DHT22;65381;51.254;15.592;2023-05-17T00:30:47;9.40;78.70
76537;DHT22;65381;51.254;15.592;2023-05-17T00:33:16;9.40;78.60
76537;DHT22;65381;51.254;15.592;2023-05-17T00:35:45;9.40;78.50
76537;DHT22;65381;51.254;15.592;2023-05-17T00:38:13;9.30;78.50
76537;DHT22;65381;51.254;15.592;2023-05-17T00:40:41;9.20;78.50
76537;DHT22;65381;51.254;15.592;2023-05-17T00:43:09;9.20;78.40
76537;DHT22;65381;51.254;15.592;2023-05-17T00:45:38;9.20;78.40
76537;DHT22;65381;51.254;15.592;2023-05-17T00:48:07;9.10;78.30
76537;DHT22;65381;51.254;15.592;2023-05-17T00:50:35;9.00;78.40
76537;DHT22;65381;51.254;15.592;2023-05-17T00:53:03;9.00;78.40
76537;DHT22;65381;51.254;15.592;2023-05-17T00:55:32;9.00;78.20
76537;DHT22;65381;51.254;15.592;2023-05-17T00:58:00;8.90;78.20
76537;DHT22;65381;51.254;15.592;2023-05-17T01:00:28;8.80;78.10
76537;DHT22;65381;51.254;15.592;2023-05-17T01:02:57;8.80;78.10
76537;DHT22;65381;51.254;15.592;2023-05-17T01:05:26;8.70;78.10
76537;DHT22;65381;51.254;15.592;2023-05-17T01:07:56;8.60;78.00
76537;DHT22;65381;51.254;15.592;2023-05-17T01:13:21;8.50;78.00
76537;DHT22;65381;51.254;15.592;2023-05-17T01:16:12;8.40;78.00
76537;DHT22;65381;51.254;15.592;2023-05-17T01:19:10;8.30;78.10
76537;DHT22;65381;51.254;15.592;2023-05-17T01:21:58;8.20;78.10
76537;DHT22;65381;51.254;15.592;2023-05-17T01:27:30;8.10;78.00
76537;DHT22;65381;51.254;15.592;2023-05-17T01:30:00;8.10;77.90
76537;DHT22;65381;51.254;15.592;2023-05-17T01:32:29;8.00;77.90
76537;DHT22;65381;51.254;15.592;2023-05-17T01:35:03;8.00;77.90
76537;DHT22;65381;51.254;15.592;2023-05-17T01:37:34;8.00;77.90
76537;DHT22;65381;51.254;15.592;2023-05-17T01:40:03;7.90;77.90
76537;DHT22;65381;51.254;15.592;2023-05-17T01:42:32;7.80;77.80
76537;DHT22;65381;51.254;15.592;2023-05-17T01:45:29;7.80;77.80
76537;DHT22;65381;51.254;15.592;2023-05-17T01:48:19;7.70;77.80
76537;DHT22;65381;51.254;15.592;2023-05-17T01:50:50;7.60;77.80
76537;DHT22;65381;51.254;15.592;2023-05-17T01:53:31;7.50;77.70
76537;DHT22;65381;51.254;15.592;2023-05-17T01:56:03;7.50;77.80
76537;DHT22;65381;51.254;15.592;2023-05-17T01:58:43;7.40;77.70
76537;DHT22;65381;51.254;15.592;2023-05-17T02:01:14;7.30;77.80
76537;DHT22;65381;51.254;15.592;2023-05-17T02:03:43;7.30;77.80
76537;DHT22;65381;51.254;15.592;2023-05-17T02:06:14;7.20;77.80
76537;DHT22;65381;51.254;15.592;2023-05-17T02:08:42;7.20;77.80
76537;DHT22;65381;51.254;15.592;2023-05-17T02:11:11;7.20;77.70
76537;DHT22;65381;51.254;15.592;2023-05-17T02:13:39;7.10;77.70
76537;DHT22;65381;51.254;15.592;2023-05-17T02:16:07;7.00;77.70
76537;DHT22;65381;51.254;15.592;2023-05-17T02:18:35;7.00;77.70
76537;DHT22;65381;51.254;15.592;2023-05-17T02:21:06;7.00;77.70
76537;DHT22;65381;51.254;15.592;2023-05-17T02:23:35;7.00;77.70
76537;DHT22;65381;51.254;15.592;2023-05-17T02:26:04;6.90;77.60
76537;DHT22;65381;51.254;15.592;2023-05-17T02:28:33;6.90;77.60
76537;DHT22;65381;51.254;15.592;2023-05-17T02:31:02;6.90;77.60
76537;DHT22;65381;51.254;15.592;2023-05-17T02:33:31;6.80;77.60
76537;DHT22;65381;51.254;15.592;2023-05-17T02:36:00;6.80;77.70
76537;DHT22;65381;51.254;15.592;2023-05-17T02:38:27;6.80;77.70
76537;DHT22;65381;51.254;15.592;2023-05-17T02:40:56;6.80;77.70
76537;DHT22;65381;51.254;15.592;2023-05-17T02:43:24;6.70;77.70
76537;DHT22;65381;51.254;15.592;2023-05-17T02:45:52;6.70;77.60
76537;DHT22;65381;51.254;15.592;2023-05-17T02:48:20;6.70;77.50
76537;DHT22;65381;51.254;15.592;2023-05-17T02:50:48;6.70;77.60
76537;DHT22;65381;51.254;15.592;2023-05-17T02:53:16;6.70;77.60
76537;DHT22;65381;51.254;15.592;2023-05-17T02:55:45;6.60;77.50
76537;DHT22;65381;51.254;15.592;2023-05-17T02:58:13;6.60;77.50
76537;DHT22;65381;51.254;15.592;2023-05-17T03:00:44;6.60;77.50
76537;DHT22;65381;51.254;15.592;2023-05-17T03:03:14;6.60;77.50
76537;DHT22;65381;51.254;15.592;2023-05-17T03:05:43;6.60;77.50
76537;DHT22;65381;51.254;15.592;2023-05-17T03:08:11;6.50;77.50
76537;DHT22;65381;51.254;15.592;2023-05-17T03:10:41;6.50;77.60
76537;DHT22;65381;51.254;15.592;2023-05-17T03:13:09;6.50;77.60
76537;DHT22;65381;51.254;15.592;2023-05-17T03:15:39;6.50;77.60
76537;DHT22;65381;51.254;15.592;2023-05-17T03:18:07;6.50;77.50
76537;DHT22;65381;51.254;15.592;2023-05-17T03:20:38;6.50;77.60
76537;DHT22;65381;51.254;15.592;2023-05-17T03:23:06;6.50;77.60
76537;DHT22;65381;51.254;15.592;2023-05-17T03:25:42;6.50;77.70
76537;DHT22;65381;51.254;15.592;2023-05-17T03:28:10;6.40;77.70
76537;DHT22;65381;51.254;15.592;2023-05-17T03:30:38;6.50;77.60
76537;DHT22;65381;51.254;15.592;2023-05-17T03:33:07;6.50;77.70
76537;DHT22;65381;51.254;15.592;2023-05-17T03:35:36;6.50;77.70
76537;DHT22;65381;51.254;15.592;2023-05-17T03:38:04;6.50;77.60
76537;DHT22;65381;51.254;15.592;2023-05-17T03:40:32;6.50;77.60
76537;DHT22;65381;51.254;15.592;2023-05-17T03:43:01;6.50;77.60
76537;DHT22;65381;51.254;15.592;2023-05-17T03:45:29;6.50;77.60
76537;DHT22;65381;51.254;15.592;2023-05-17T03:47:57;6.50;77.60
76537;DHT22;65381;51.254;15.592;2023-05-17T03:50:27;6.50;77.60
76537;DHT22;65381;51.254;15.592;2023-05-17T03:52:55;6.50;77.60
76537;DHT22;65381;51.254;15.592;2023-05-17T03:55:23;6.60;77.70
76537;DHT22;65381;51.254;15.592;2023-05-17T03:57:51;6.60;77.60
76537;DHT22;65381;51.254;15.592;2023-05-17T04:00:19;6.60;77.60
76537;DHT22;65381;51.254;15.592;2023-05-17T04:02:51;6.70;77.70
76537;DHT22;65381;51.254;15.592;2023-05-17T04:05:19;6.70;77.60
76537;DHT22;65381;51.254;15.592;2023-05-17T04:07:49;6.80;77.60
76537;DHT22;65381;51.254;15.592;2023-05-17T04:10:17;6.90;77.70
76537;DHT22;65381;51.254;15.592;2023-05-17T04:12:45;6.90;77.60
76537;DHT22;65381;51.254;15.592;2023-05-17T04:15:14;7.00;77.60
76537;DHT22;65381;51.254;15.592;2023-05-17T04:17:43;7.10;77.70
76537;DHT22;65381;51.254;15.592;2023-05-17T04:20:12;7.20;77.70
76537;DHT22;65381;51.254;15.592;2023-05-17T04:22:41;7.30;77.70
76537;DHT22;65381;51.254;15.592;2023-05-17T04:25:11;7.40;77.60
76537;DHT22;65381;51.254;15.592;2023-05-17T04:27:39;7.50;77.50
76537;DHT22;65381;51.254;15.592;2023-05-17T04:30:09;7.60;77.40
76537;DHT22;65381;51.254;15.592;2023-05-17T04:32:37;7.70;77.50
76537;DHT22;65381;51.254;15.592;2023-05-17T04:35:06;7.80;77.30
76537;DHT22;65381;51.254;15.592;2023-05-17T04:37:35;7.80;77.20
76537;DHT22;65381;51.254;15.592;2023-05-17T04:40:16;7.80;77.30
76537;DHT22;65381;51.254;15.592;2023-05-17T04:42:45;8.00;77.50
76537;DHT22;65381;51.254;15.592;2023-05-17T04:45:14;8.10;77.50
76537;DHT22;65381;51.254;15.592;2023-05-17T04:47:43;8.20;77.40
76537;DHT22;65381;51.254;15.592;2023-05-17T04:50:11;8.40;77.20
76537;DHT22;65381;51.254;15.592;2023-05-17T04:52:39;8.50;77.20
76537;DHT22;65381;51.254;15.592;2023-05-17T04:55:09;8.60;77.10
76537;DHT22;65381;51.254;15.592;2023-05-17T04:57:38;8.60;76.90
76537;DHT22;65381;51.254;15.592;2023-05-17T05:00:08;8.60;76.90
76537;DHT22;65381;51.254;15.592;2023-05-17T05:02:40;8.80;77.00
76537;DHT22;65381;51.254;15.592;2023-05-17T05:05:11;8.90;77.00
76537;DHT22;65381;51.254;15.592;2023-05-17T05:07:42;9.00;77.00
76537;DHT22;65381;51.254;15.592;2023-05-17T05:10:12;9.20;76.90
76537;DHT22;65381;51.254;15.592;2023-05-17T05:12:41;9.40;76.60
76537;DHT22;65381;51.254;15.592;2023-05-17T05:15:10;9.40;76.30
76537;DHT22;65381;51.254;15.592;2023-05-17T05:17:40;9.50;76.70
76537;DHT22;65381;51.254;15.592;2023-05-17T05:20:09;9.60;76.20
76537;DHT22;65381;51.254;15.592;2023-05-17T05:22:37;9.60;76.10
76537;DHT22;65381;51.254;15.592;2023-05-17T05:25:06;9.70;76.40
76537;DHT22;65381;51.254;15.592;2023-05-17T05:27:34;9.80;76.40
76537;DHT22;65381;51.254;15.592;2023-05-17T05:30:03;10.00;76.00
76537;DHT22;65381;51.254;15.592;2023-05-17T05:32:31;10.00;76.10
76537;DHT22;65381;51.254;15.592;2023-05-17T05:35:00;10.00;76.10
76537;DHT22;65381;51.254;15.592;2023-05-17T05:37:28;10.10;76.20
76537;DHT22;65381;51.254;15.592;2023-05-17T05:39:57;10.30;76.10
76537;DHT22;65381;51.254;15.592;2023-05-17T05:42:26;10.50;75.90
76537;DHT22;65381;51.254;15.592;2023-05-17T05:44:54;10.60;75.70
76537;DHT22;65381;51.254;15.592;2023-05-17T05:47:24;10.70;75.70
76537;DHT22;65381;51.254;15.592;2023-05-17T05:49:52;10.80;75.80
76537;DHT22;65381;51.254;15.592;2023-05-17T05:52:22;11.00;75.80
76537;DHT22;65381;51.254;15.592;2023-05-17T05:54:50;11.10;75.30
76537;DHT22;65381;51.254;15.592;2023-05-17T05:57:18;11.20;75.40
76537;DHT22;65381;51.254;15.592;2023-05-17T05:59:47;11.40;75.40
76537;DHT22;65381;51.254;15.592;2023-05-17T06:02:15;11.40;75.10
76537;DHT22;65381;51.254;15.592;2023-05-17T06:04:47;11.40;75.10
76537;DHT22;65381;51.254;15.592;2023-05-17T06:07:15;11.40;75.00
76537;DHT22;65381;51.254;15.592;2023-05-17T06:09:44;11.50;75.00
76537;DHT22;65381;51.254;15.592;2023-05-17T06:12:11;11.50;75.20
76537;DHT22;65381;51.254;15.592;2023-05-17T06:14:40;11.70;74.90
76537;DHT22;65381;51.254;15.592;2023-05-17T06:17:08;11.60;74.60
76537;DHT22;65381;51.254;15.592;2023-05-17T06:19:36;11.50;74.70
76537;DHT22;65381;51.254;15.592;2023-05-17T06:22:04;11.50;74.80
76537;DHT22;65381;51.254;15.592;2023-05-17T06:24:32;11.60;75.30
76537;DHT22;65381;51.254;15.592;2023-05-17T06:27:00;11.80;75.00
76537;DHT22;65381;51.254;15.592;2023-05-17T06:29:29;11.80;74.20
76537;DHT22;65381;51.254;15.592;2023-05-17T06:31:57;11.70;74.50
76537;DHT22;65381;51.254;15.592;2023-05-17T06:34:26;11.70;74.30
76537;DHT22;65381;51.254;15.592;2023-05-17T06:36:54;11.70;74.80
76537;DHT22;65381;51.254;15.592;2023-05-17T06:39:23;11.90;74.90
76537;DHT22;65381;51.254;15.592;2023-05-17T06:41:50;12.10;74.60
76537;DHT22;65381;51.254;15.592;2023-05-17T06:44:19;12.20;74.20
76537;DHT22;65381;51.254;15.592;2023-05-17T06:46:50;12.20;73.90
76537;DHT22;65381;51.254;15.592;2023-05-17T06:49:18;12.10;73.80
76537;DHT22;65381;51.254;15.592;2023-05-17T06:51:46;12.00;73.70
76537;DHT22;65381;51.254;15.592;2023-05-17T06:54:15;11.90;74.10
76537;DHT22;65381;51.254;15.592;2023-05-17T06:56:46;12.00;74.50
76537;DHT22;65381;51.254;15.592;2023-05-17T06:59:15;12.10;74.00
76537;DHT22;65381;51.254;15.592;2023-05-17T07:01:43;12.10;73.90
76537;DHT22;65381;51.254;15.592;2023-05-17T07:04:11;12.10;74.00
76537;DHT22;65381;51.254;15.592;2023-05-17T07:06:40;12.10;74.00
76537;DHT22;65381;51.254;15.592;2023-05-17T07:09:08;12.30;74.20
76537;DHT22;65381;51.254;15.592;2023-05-17T07:11:36;12.50;74.10
76537;DHT22;65381;51.254;15.592;2023-05-17T07:14:05;12.60;73.90
76537;DHT22;65381;51.254;15.592;2023-05-17T07:16:33;12.70;73.40
76537;DHT22;65381;51.254;15.592;2023-05-17T07:19:02;12.70;73.30
76537;DHT22;65381;51.254;15.592;2023-05-17T07:21:31;12.90;73.80
76537;DHT22;65381;51.254;15.592;2023-05-17T07:24:00;13.10;73.60
76537;DHT22;65381;51.254;15.592;2023-05-17T07:26:27;13.30;73.20
76537;DHT22;65381;51.254;15.592;2023-05-17T07:28:56;13.40;73.00
76537;DHT22;65381;51.254;15.592;2023-05-17T07:31:24;13.50;73.20
76537;DHT22;65381;51.254;15.592;2023-05-17T07:33:52;13.70;73.10
76537;DHT22;65381;51.254;15.592;2023-05-17T07:36:20;13.80;72.60
76537;DHT22;65381;51.254;15.592;2023-05-17T07:38:54;13.90;73.00
76537;DHT22;65381;51.254;15.592;2023-05-17T07:41:22;14.20;72.70
76537;DHT22;65381;51.254;15.592;2023-05-17T07:43:51;14.40;72.90
76537;DHT22;65381;51.254;15.592;2023-05-17T07:46:19;14.80;72.10
76537;DHT22;65381;51.254;15.592;2023-05-17T07:48:47;15.00;72.40
76537;DHT22;65381;51.254;15.592;2023-05-17T07:51:15;15.30;71.80
76537;DHT22;65381;51.254;15.592;2023-05-17T07:53:45;15.30;71.50
76537;DHT22;65381;51.254;15.592;2023-05-17T07:56:12;15.30;71.40
76537;DHT22;65381;51.254;15.592;2023-05-17T07:58:41;15.30;71.60
76537;DHT22;65381;51.254;15.592;2023-05-17T08:01:10;15.50;71.50
76537;DHT22;65381;51.254;15.592;2023-05-17T08:03:39;15.40;71.20
76537;DHT22;65381;51.254;15.592;2023-05-17T08:06:15;15.60;71.60
76537;DHT22;65381;51.254;15.592;2023-05-17T08:08:44;16.10;71.40
76537;DHT22;65381;51.254;15.592;2023-05-17T08:11:13;16.40;70.60
76537;DHT22;65381;51.254;15.592;2023-05-17T08:13:41;16.40;70.40
76537;DHT22;65381;51.254;15.592;2023-05-17T08:16:10;16.40;70.20
76537;DHT22;65381;51.254;15.592;2023-05-17T08:18:41;16.40;70.10
76537;DHT22;65381;51.254;15.592;2023-05-17T08:21:10;16.40;70.00
76537;DHT22;65381;51.254;15.592;2023-05-17T08:23:39;16.10;69.70
76537;DHT22;65381;51.254;15.592;2023-05-17T08:26:08;16.00;70.10
76537;DHT22;65381;51.254;15.592;2023-05-17T08:28:36;16.00;70.30
76537;DHT22;65381;51.254;15.592;2023-05-17T08:31:05;16.50;70.50
76537;DHT22;65381;51.254;15.592;2023-05-17T08:33:34;17.00;70.10
76537;DHT22;65381;51.254;15.592;2023-05-17T08:36:03;17.60;69.10
76537;DHT22;65381;51.254;15.592;2023-05-17T08:38:34;17.90;68.60
76537;DHT22;65381;51.254;15.592;2023-05-17T08:41:02;18.20;68.70
76537;DHT22;65381;51.254;15.592;2023-05-17T08:43:31;18.60;68.10
76537;DHT22;65381;51.254;15.592;2023-05-17T08:45:59;18.50;67.70
76537;DHT22;65381;51.254;15.592;2023-05-17T08:48:28;18.30;67.50
76537;DHT22;65381;51.254;15.592;2023-05-17T08:50:58;17.80;67.70
76537;DHT22;65381;51.254;15.592;2023-05-17T08:53:26;17.80;68.30
76537;DHT22;65381;51.254;15.592;2023-05-17T08:55:57;17.90;68.00
76537;DHT22;65381;51.254;15.592;2023-05-17T08:58:32;18.20;68.10
76537;DHT22;65381;51.254;15.592;2023-05-17T09:01:21;18.30;67.40
76537;DHT22;65381;51.254;15.592;2023-05-17T09:03:53;18.40;67.50
76537;DHT22;65381;51.254;15.592;2023-05-17T09:06:22;18.50;66.90
76537;DHT22;65381;51.254;15.592;2023-05-17T09:08:52;18.30;66.70
76537;DHT22;65381;51.254;15.592;2023-05-17T09:11:27;18.30;66.90
76537;DHT22;65381;51.254;15.592;2023-05-17T09:13:58;18.50;66.30
76537;DHT22;65381;51.254;15.592;2023-05-17T09:16:31;18.60;66.50
76537;DHT22;65381;51.254;15.592;2023-05-17T09:19:00;18.90;65.70
76537;DHT22;65381;51.254;15.592;2023-05-17T09:21:29;18.50;64.70
76537;DHT22;65381;51.254;15.592;2023-05-17T09:23:58;17.90;65.30
76537;DHT22;65381;51.254;15.592;2023-05-17T09:26:39;17.50;65.50
76537;DHT22;65381;51.254;15.592;2023-05-17T09:29:10;17.10;65.70
76537;DHT22;65381;51.254;15.592;2023-05-17T09:31:39;17.10;65.90
76537;DHT22;65381;51.254;15.592;2023-05-17T09:34:08;17.30;66.00
76537;DHT22;65381;51.254;15.592;2023-05-17T09:36:37;17.70;65.90
76537;DHT22;65381;51.254;15.592;2023-05-17T09:39:06;18.00;65.30
76537;DHT22;65381;51.254;15.592;2023-05-17T09:41:42;18.60;65.30
76537;DHT22;65381;51.254;15.592;2023-05-17T09:44:13;19.40;64.10
76537;DHT22;65381;51.254;15.592;2023-05-17T09:46:44;19.60;63.40
76537;DHT22;65381;51.254;15.592;2023-05-17T09:49:13;19.30;63.00
76537;DHT22;65381;51.254;15.592;2023-05-17T09:51:46;18.80;63.20
76537;DHT22;65381;51.254;15.592;2023-05-17T09:54:15;18.40;63.60
76537;DHT22;65381;51.254;15.592;2023-05-17T09:56:52;18.30;63.80
76537;DHT22;65381;51.254;15.592;2023-05-17T09:59:22;18.10;63.80
76537;DHT22;65381;51.254;15.592;2023-05-17T10:01:53;18.00;63.70
76537;DHT22;65381;51.254;15.592;2023-05-17T10:04:23;17.60;63.30
76537;DHT22;65381;51.254;15.592;2023-05-17T10:06:56;17.00;63.60
76537;DHT22;65381;51.254;15.592;2023-05-17T10:09:27;16.70;64.30
76537;DHT22;65381;51.254;15.592;2023-05-17T10:12:01;17.00;64.70
76537;DHT22;65381;51.254;15.592;2023-05-17T10:14:31;17.10;63.80
76537;DHT22;65381;51.254;15.592;2023-05-17T10:17:03;16.90;63.50
76537;DHT22;65381;51.254;15.592;2023-05-17T10:19:32;16.60;63.70
76537;DHT22;65381;51.254;15.592;2023-05-17T10:22:01;16.50;63.80
76537;DHT22;65381;51.254;15.592;2023-05-17T10:24:49;16.40;63.70
76537;DHT22;65381;51.254;15.592;2023-05-17T10:27:22;16.40;63.90
76537;DHT22;65381;51.254;15.592;2023-05-17T10:29:51;16.60;63.70
76537;DHT22;65381;51.254;15.592;2023-05-17T10:32:22;16.80;63.50
76537;DHT22;65381;51.254;15.592;2023-05-17T10:34:53;16.80;63.30
76537;DHT22;65381;51.254;15.592;2023-05-17T10:37:39;16.80;63.10
76537;DHT22;65381;51.254;15.592;2023-05-17T10:40:08;16.50;62.50
76537;DHT22;65381;51.254;15.592;2023-05-17T10:42:49;16.20;63.00
76537;DHT22;65381;51.254;15.592;2023-05-17T10:45:21;16.20;63.10
76537;DHT22;65381;51.254;15.592;2023-05-17T10:47:51;16.10;62.90
76537;DHT22;65381;51.254;15.592;2023-05-17T10:50:24;16.10;63.20
76537;DHT22;65381;51.254;15.592;2023-05-17T10:52:53;16.30;63.00
76537;DHT22;65381;51.254;15.592;2023-05-17T10:55:25;16.50;63.00
76537;DHT22;65381;51.254;15.592;2023-05-17T10:58:13;16.80;62.90
76537;DHT22;65381;51.254;15.592;2023-05-17T11:00:47;17.50;62.70
76537;DHT22;65381;51.254;15.592;2023-05-17T11:03:17;17.80;61.50
76537;DHT22;65381;51.254;15.592;2023-05-17T11:06:12;17.80;61.20
76537;DHT22;65381;51.254;15.592;2023-05-17T11:09:12;17.70;61.60
76537;DHT22;65381;51.254;15.592;2023-05-17T11:12:07;17.50;61.20
76537;DHT22;65381;51.254;15.592;2023-05-17T11:14:53;17.50;61.60
76537;DHT22;65381;51.254;15.592;2023-05-17T11:17:24;17.40;61.30
76537;DHT22;65381;51.254;15.592;2023-05-17T11:22:26;17.50;61.70
76537;DHT22;65381;51.254;15.592;2023-05-17T11:24:56;18.00;61.00
76537;DHT22;65381;51.254;15.592;2023-05-17T11:27:24;18.40;60.50
76537;DHT22;65381;51.254;15.592;2023-05-17T11:29:57;18.40;60.20
76537;DHT22;65381;51.254;15.592;2023-05-17T11:32:34;18.30;59.90
76537;DHT22;65381;51.254;15.592;2023-05-17T11:35:02;18.60;60.00
76537;DHT22;65381;51.254;15.592;2023-05-17T11:37:31;18.60;59.80
76537;DHT22;65381;51.254;15.592;2023-05-17T11:42:30;18.90;59.70
76537;DHT22;65381;51.254;15.592;2023-05-17T11:45:00;19.00;59.40
76537;DHT22;65381;51.254;15.592;2023-05-17T11:47:29;19.20;59.90
76537;DHT22;65381;51.254;15.592;2023-05-17T11:50:02;19.60;58.50
76537;DHT22;65381;51.254;15.592;2023-05-17T11:52:30;19.70;58.50
76537;DHT22;65381;51.254;15.592;2023-05-17T11:55:00;19.90;58.40
76537;DHT22;65381;51.254;15.592;2023-05-17T11:57:31;20.10;58.10
76537;DHT22;65381;51.254;15.592;2023-05-17T12:00:01;20.10;57.90
76537;DHT22;65381;51.254;15.592;2023-05-17T12:02:40;20.40;57.60
76537;DHT22;65381;51.254;15.592;2023-05-17T12:05:09;21.10;57.40
76537;DHT22;65381;51.254;15.592;2023-05-17T12:07:38;21.60;57.00
76537;DHT22;65381;51.254;15.592;2023-05-17T12:10:11;22.00;56.20
76537;DHT22;65381;51.254;15.592;2023-05-17T12:12:39;22.10;56.10
76537;DHT22;65381;51.254;15.592;2023-05-17T12:15:08;22.10;55.60
76537;DHT22;65381;51.254;15.592;2023-05-17T12:17:40;21.70;55.10
76537;DHT22;65381;51.254;15.592;2023-05-17T12:20:12;21.10;55.00
76537;DHT22;65381;51.254;15.592;2023-05-17T12:22:56;21.00;55.40
76537;DHT22;65381;51.254;15.592;2023-05-17T12:25:24;21.40;55.50
76537;DHT22;65381;51.254;15.592;2023-05-17T12:28:15;21.90;55.00
76537;DHT22;65381;51.254;15.592;2023-05-17T12:30:45;22.00;54.50
76537;DHT22;65381;51.254;15.592;2023-05-17T12:33:18;21.90;54.60
76537;DHT22;65381;51.254;15.592;2023-05-17T12:35:47;22.00;54.40
76537;DHT22;65381;51.254;15.592;2023-05-17T12:38:15;22.00;54.20
76537;DHT22;65381;51.254;15.592;2023-05-17T12:40:44;22.20;54.50
76537;DHT22;65381;51.254;15.592;2023-05-17T12:43:13;22.50;53.90
76537;DHT22;65381;51.254;15.592;2023-05-17T12:45:41;22.70;53.70
76537;DHT22;65381;51.254;15.592;2023-05-17T12:48:09;22.80;52.90
76537;DHT22;65381;51.254;15.592;2023-05-17T12:50:41;22.80;53.10
76537;DHT22;65381;51.254;15.592;2023-05-17T12:53:12;22.70;52.60
76537;DHT22;65381;51.254;15.592;2023-05-17T12:55:40;22.50;52.30
76537;DHT22;65381;51.254;15.592;2023-05-17T12:58:08;22.20;52.50
76537;DHT22;65381;51.254;15.592;2023-05-17T13:00:39;22.20;52.70
76537;DHT22;65381;51.254;15.592;2023-05-17T13:03:10;22.30;52.70
76537;DHT22;65381;51.254;15.592;2023-05-17T13:05:40;22.50;52.20
76537;DHT22;65381;51.254;15.592;2023-05-17T13:08:22;22.40;52.00
76537;DHT22;65381;51.254;15.592;2023-05-17T13:10:51;22.10;50.60
76537;DHT22;65381;51.254;15.592;2023-05-17T13:13:20;21.90;51.50
76537;DHT22;65381;51.254;15.592;2023-05-17T13:15:49;21.90;51.50
76537;DHT22;65381;51.254;15.592;2023-05-17T13:18:19;21.70;51.50
76537;DHT22;65381;51.254;15.592;2023-05-17T13:20:48;21.70;51.50
76537;DHT22;65381;51.254;15.592;2023-05-17T13:23:17;21.70;50.80
76537;DHT22;65381;51.254;15.592;2023-05-17T13:25:46;21.50;50.80
76537;DHT22;65381;51.254;15.592;2023-05-17T13:28:14;21.30;50.50
76537;DHT22;65381;51.254;15.592;2023-05-17T13:30:42;21.10;50.80
76537;DHT22;65381;51.254;15.592;2023-05-17T13:33:17;21.10;50.20
76537;DHT22;65381;51.254;15.592;2023-05-17T13:35:45;20.70;50.40
76537;DHT22;65381;51.254;15.592;2023-05-17T13:38:13;20.60;50.50
76537;DHT22;65381;51.254;15.592;2023-05-17T13:40:42;20.50;50.40
76537;DHT22;65381;51.254;15.592;2023-05-17T13:43:10;20.50;50.30
76537;DHT22;65381;51.254;15.592;2023-05-17T13:45:38;20.50;50.30
76537;DHT22;65381;51.254;15.592;2023-05-17T13:48:06;20.50;50.40
76537;DHT22;65381;51.254;15.592;2023-05-17T13:50:35;20.50;50.20
76537;DHT22;65381;51.254;15.592;2023-05-17T13:53:03;20.50;50.30
76537;DHT22;65381;51.254;15.592;2023-05-17T13:55:31;20.50;49.90
76537;DHT22;65381;51.254;15.592;2023-05-17T13:57:59;20.30;50.00
76537;DHT22;65381;51.254;15.592;2023-05-17T14:00:29;20.20;49.70
76537;DHT22;65381;51.254;15.592;2023-05-17T14:02:57;20.00;49.70
76537;DHT22;65381;51.254;15.592;2023-05-17T14:05:26;19.90;49.70
76537;DHT22;65381;51.254;15.592;2023-05-17T14:07:54;19.90;49.60
76537;DHT22;65381;51.254;15.592;2023-05-17T14:10:22;19.70;49.50
76537;DHT22;65381;51.254;15.592;2023-05-17T14:12:50;19.50;49.70
76537;DHT22;65381;51.254;15.592;2023-05-17T14:15:18;19.50;49.70
76537;DHT22;65381;51.254;15.592;2023-05-17T14:17:48;19.40;49.70
76537;DHT22;65381;51.254;15.592;2023-05-17T14:20:18;19.40;49.80
76537;DHT22;65381;51.254;15.592;2023-05-17T14:22:46;19.40;49.70
76537;DHT22;65381;51.254;15.592;2023-05-17T14:25:15;19.30;49.50
76537;DHT22;65381;51.254;15.592;2023-05-17T14:27:43;19.20;49.40
76537;DHT22;65381;51.254;15.592;2023-05-17T14:30:12;19.10;49.40
76537;DHT22;65381;51.254;15.592;2023-05-17T14:32:41;19.00;49.40
76537;DHT22;65381;51.254;15.592;2023-05-17T14:35:10;18.90;49.40
76537;DHT22;65381;51.254;15.592;2023-05-17T14:37:38;18.80;49.40
76537;DHT22;65381;51.254;15.592;2023-05-17T14:40:06;18.60;49.20
76537;DHT22;65381;51.254;15.592;2023-05-17T14:42:34;18.40;49.30
76537;DHT22;65381;51.254;15.592;2023-05-17T14:45:03;18.20;49.30
76537;DHT22;65381;51.254;15.592;2023-05-17T14:47:31;18.10;49.00
76537;DHT22;65381;51.254;15.592;2023-05-17T14:50:03;17.90;48.80
76537;DHT22;65381;51.254;15.592;2023-05-17T14:52:32;17.70;49.00
76537;DHT22;65381;51.254;15.592;2023-05-17T14:55:01;17.60;49.00
76537;DHT22;65381;51.254;15.592;2023-05-17T14:57:31;17.60;48.90
76537;DHT22;65381;51.254;15.592;2023-05-17T15:00:00;17.60;49.00
76537;DHT22;65381;51.254;15.592;2023-05-17T15:02:28;17.60;48.90
76537;DHT22;65381;51.254;15.592;2023-05-17T15:04:57;17.60;48.80
76537;DHT22;65381;51.254;15.592;2023-05-17T15:07:26;17.50;48.80
76537;DHT22;65381;51.254;15.592;2023-05-17T15:09:55;17.40;49.00
76537;DHT22;65381;51.254;15.592;2023-05-17T15:12:23;17.40;48.90
76537;DHT22;65381;51.254;15.592;2023-05-17T15:14:51;17.40;48.90
76537;DHT22;65381;51.254;15.592;2023-05-17T15:17:20;17.40;48.70
76537;DHT22;65381;51.254;15.592;2023-05-17T15:19:49;17.20;48.80
76537;DHT22;65381;51.254;15.592;2023-05-17T15:22:18;17.10;48.80
76537;DHT22;65381;51.254;15.592;2023-05-17T15:24:47;17.10;48.90
76537;DHT22;65381;51.254;15.592;2023-05-17T15:27:15;17.20;49.00
76537;DHT22;65381;51.254;15.592;2023-05-17T15:29:44;17.20;49.00
76537;DHT22;65381;51.254;15.592;2023-05-17T15:32:11;17.40;48.90
76537;DHT22;65381;51.254;15.592;2023-05-17T15:34:40;17.50;48.80
76537;DHT22;65381;51.254;15.592;2023-05-17T15:37:08;17.50;48.70
76537;DHT22;65381;51.254;15.592;2023-05-17T15:39:36;17.50;48.70
76537;DHT22;65381;51.254;15.592;2023-05-17T15:42:05;17.40;48.40
76537;DHT22;65381;51.254;15.592;2023-05-17T15:44:33;17.20;48.50
76537;DHT22;65381;51.254;15.592;2023-05-17T15:47:01;17.00;48.60
76537;DHT22;65381;51.254;15.592;2023-05-17T15:49:30;16.90;48.80